createdAt,value
2019-03-19T00:00:18.969Z,7.77
2019-03-19T00:05:27.254Z,7.89
2019-03-19T00:10:35.898Z,7.51
2019-03-19T00:15:44.184Z,8.14
2019-03-19T00:20:52.708Z,8.14
2019-03-19T00:26:01.167Z,7.57
2019-03-19T00:31:09.637Z,8.00
2019-03-19T00:36:17.762Z,7.18
2019-03-19T00:41:26.994Z,8.37
2019-03-19T00:46:35.148Z,8.45
2019-03-19T00:51:44.855Z,7.42
2019-03-19T00:56:53.228Z,8.14
2019-03-19T01:02:01.537Z,7.87
2019-03-19T01:07:09.843Z,7.48
2019-03-19T01:12:18.225Z,7.82
2019-03-19T01:17:26.483Z,7.02
2019-03-19T01:22:35.128Z,7.38
2019-03-19T01:27:43.560Z,7.67
2019-03-19T01:32:51.510Z,6.60
2019-03-19T01:38:00.222Z,7.41
2019-03-19T01:43:08.510Z,8.45
2019-03-19T01:48:16.944Z,7.87
2019-03-19T01:53:26.162Z,7.37
2019-03-19T01:58:34.857Z,7.98
2019-03-19T02:03:43.355Z,8.62
2019-03-19T02:08:51.765Z,7.19
2019-03-19T02:14:00.284Z,8.56
2019-03-19T02:19:09.980Z,6.95
2019-03-19T02:24:17.790Z,7.09
2019-03-19T02:29:25.380Z,8.39
2019-03-19T02:34:32.946Z,7.59
2019-03-19T02:39:41.442Z,8.24
2019-03-19T02:44:49.651Z,7.97
2019-03-19T02:49:58.377Z,8.36
2019-03-19T02:55:06.468Z,8.40
2019-03-19T03:00:14.251Z,7.82
2019-03-19T03:05:21.784Z,8.02
2019-03-19T03:10:30.193Z,6.93
2019-03-19T03:15:38.116Z,6.81
2019-03-19T03:20:45.946Z,7.68
2019-03-19T03:25:53.730Z,7.04
2019-03-19T03:31:02.012Z,8.34
2019-03-19T03:36:10.058Z,6.92
2019-03-19T03:41:17.858Z,7.72
2019-03-19T03:46:25.542Z,9.01
2019-03-19T03:51:33.589Z,9.17
2019-03-19T03:56:42.025Z,9.23
2019-03-19T04:01:50.818Z,7.87
2019-03-19T04:06:58.739Z,6.91
2019-03-19T04:12:06.972Z,7.86
2019-03-19T04:17:14.929Z,6.98
2019-03-19T04:22:22.820Z,6.44
2019-03-19T04:27:30.797Z,7.36
2019-03-19T04:32:38.907Z,7.79
2019-03-19T04:37:47.343Z,7.95
2019-03-19T04:42:55.171Z,7.16
2019-03-19T04:48:03.714Z,9.27
2019-03-19T04:53:13.152Z,9.39
2019-03-19T04:58:11.989Z,8.30
2019-03-19T05:03:20.455Z,7.98
2019-03-19T05:08:28.260Z,8.93
2019-03-19T05:13:36.846Z,8.93
2019-03-19T05:18:44.767Z,9.84
2019-03-19T05:23:53.052Z,9.36
2019-03-19T05:29:01.279Z,10.01
2019-03-19T05:34:09.816Z,11.15
2019-03-19T05:39:17.972Z,9.92
2019-03-19T05:44:26.415Z,9.71
2019-03-19T05:49:34.354Z,9.41
2019-03-19T05:54:42.382Z,10.36
2019-03-19T05:59:50.418Z,8.90
2019-03-19T06:04:58.224Z,9.05
2019-03-19T06:10:06.961Z,8.88
2019-03-19T06:15:14.766Z,7.98
2019-03-19T06:20:23.676Z,7.74
2019-03-19T06:25:31.846Z,9.11
2019-03-19T06:30:39.678Z,9.58
2019-03-19T06:35:47.424Z,8.22
2019-03-19T06:40:54.991Z,7.17
2019-03-19T06:46:03.064Z,7.58
2019-03-19T06:51:10.960Z,7.54
2019-03-19T06:56:19.156Z,8.92
2019-03-19T07:01:27.172Z,10.20
2019-03-19T07:06:35.216Z,7.52
2019-03-19T07:11:42.930Z,9.96
2019-03-19T07:16:51.065Z,9.99
2019-03-19T07:21:58.989Z,14.26
2019-03-19T07:27:07.152Z,11.90
2019-03-19T07:32:14.720Z,11.16
2019-03-19T07:37:23.304Z,10.06
2019-03-19T07:42:32.127Z,11.53
2019-03-19T07:47:40.572Z,8.54
2019-03-19T07:52:48.700Z,9.92
2019-03-19T07:57:57.273Z,10.07
2019-03-19T08:03:15.712Z,10.33
2019-03-19T08:08:13.458Z,10.49
2019-03-19T08:13:22.127Z,10.29
2019-03-19T08:18:30.848Z,9.64
2019-03-19T08:23:38.889Z,10.51
2019-03-19T08:28:55.074Z,11.00
2019-03-19T08:33:55.149Z,8.79
2019-03-19T08:39:03.651Z,10.50
2019-03-19T08:44:11.459Z,10.78
2019-03-19T08:49:19.351Z,10.72
2019-03-19T08:54:27.063Z,11.48
2019-03-19T08:59:35.208Z,10.64
2019-03-19T09:04:43.366Z,10.57
2019-03-19T09:09:51.292Z,10.94
2019-03-19T09:14:59.486Z,10.57
2019-03-19T09:20:07.383Z,9.69
2019-03-19T09:25:15.219Z,10.53
2019-03-19T09:30:23.025Z,9.17
2019-03-19T09:35:30.795Z,10.65
2019-03-19T09:40:38.719Z,9.32
2019-03-19T09:45:46.434Z,9.13
2019-03-19T09:50:54.242Z,6.37
2019-03-19T09:56:02.671Z,7.38
2019-03-19T10:01:10.305Z,5.23
2019-03-19T10:06:18.041Z,6.68
2019-03-19T10:11:26.282Z,6.47
2019-03-19T10:16:34.132Z,7.37
2019-03-19T10:21:43.004Z,7.24
2019-03-19T10:26:51.386Z,6.37
2019-03-19T10:31:59.076Z,6.01
2019-03-19T10:37:07.004Z,5.64
2019-03-19T10:42:15.261Z,6.06
2019-03-19T10:47:23.260Z,5.94
2019-03-19T10:52:31.282Z,6.36
2019-03-19T10:57:39.522Z,5.33
2019-03-19T11:02:47.130Z,6.00
2019-03-19T11:07:54.941Z,5.55
2019-03-19T11:13:03.347Z,6.82
2019-03-19T11:18:11.484Z,5.29
2019-03-19T11:23:19.621Z,5.72
2019-03-19T11:28:27.784Z,5.20
2019-03-19T11:33:35.858Z,4.97
2019-03-19T11:38:43.393Z,6.34
2019-03-19T11:43:51.376Z,5.79
2019-03-19T11:48:59.754Z,5.80
2019-03-19T11:54:09.087Z,5.97
2019-03-19T11:59:17.014Z,6.13
2019-03-19T12:04:25.177Z,6.00
2019-03-19T12:09:33.490Z,5.25
2019-03-19T12:14:41.175Z,5.65
2019-03-19T12:19:48.834Z,6.45
2019-03-19T12:24:57.118Z,7.35
2019-03-19T12:30:05.312Z,6.23
2019-03-19T12:35:14.050Z,5.54
2019-03-19T12:40:22.605Z,4.97
2019-03-19T12:45:32.937Z,6.51
2019-03-19T12:50:30.891Z,6.15
2019-03-19T12:55:39.876Z,5.82
2019-03-19T13:00:47.801Z,5.71
2019-03-19T13:05:57.522Z,5.83
2019-03-19T13:11:05.831Z,5.43
2019-03-19T13:16:15.525Z,5.55
2019-03-19T13:21:23.691Z,6.63
2019-03-19T13:26:32.156Z,5.96
2019-03-19T13:31:40.021Z,6.08
2019-03-19T13:36:47.879Z,5.44
2019-03-19T13:41:55.869Z,5.91
2019-03-19T13:47:03.916Z,6.62
2019-03-19T13:52:11.750Z,6.81
2019-03-19T13:57:21.120Z,6.73
2019-03-19T14:02:30.061Z,6.00
2019-03-19T14:07:38.616Z,5.55
2019-03-19T14:12:46.810Z,6.87
2019-03-19T14:17:57.390Z,6.90
2019-03-19T14:22:56.641Z,6.02
2019-03-19T14:28:08.405Z,7.14
2019-03-19T14:33:07.323Z,6.59
2019-03-19T14:38:16.379Z,5.46
2019-03-19T14:43:25.222Z,4.81
2019-03-19T14:48:33.072Z,6.06
2019-03-19T14:53:41.693Z,6.51
2019-03-19T14:58:50.310Z,7.63
2019-03-19T15:03:58.139Z,6.29
2019-03-19T15:09:07.031Z,8.80
2019-03-19T15:14:15.575Z,6.76
2019-03-19T15:19:24.429Z,6.62
2019-03-19T15:29:35.149Z,5.48
2019-03-19T15:39:49.387Z,5.85
2019-03-19T15:44:57.545Z,6.24
2019-03-19T15:50:05.286Z,5.38
2019-03-19T15:55:13.756Z,6.08
2019-03-19T16:00:22.069Z,5.45
2019-03-19T16:05:29.876Z,7.11
2019-03-19T16:10:37.918Z,5.48
2019-03-19T16:15:48.406Z,5.24
2019-03-19T16:20:46.692Z,5.45
2019-03-19T16:25:55.547Z,6.63
2019-03-19T16:31:03.600Z,5.11
2019-03-19T16:36:11.424Z,6.00
2019-03-19T16:41:19.800Z,6.23
2019-03-19T16:46:28.637Z,6.87
2019-03-19T16:51:36.645Z,6.51
2019-03-19T16:56:45.258Z,5.93
2019-03-19T17:02:01.462Z,6.62
2019-03-19T17:07:03.898Z,5.78
2019-03-19T17:12:02.556Z,6.36
2019-03-19T17:17:10.410Z,8.47
2019-03-19T17:22:19.602Z,7.19
2019-03-19T17:27:27.775Z,6.06
2019-03-19T17:32:36.948Z,6.71
2019-03-19T17:37:44.981Z,7.22
2019-03-19T17:42:52.107Z,5.33
2019-03-19T17:48:00.161Z,6.62
2019-03-19T17:53:07.267Z,6.85
2019-03-19T17:58:14.527Z,6.41
2019-03-19T18:03:21.662Z,7.70
2019-03-19T18:08:28.779Z,7.21
2019-03-19T18:13:37.282Z,8.03
2019-03-19T18:18:45.479Z,8.55
2019-03-19T18:23:52.056Z,14.14
2019-03-19T18:28:59.182Z,18.16
2019-03-19T18:34:10.272Z,16.38
2019-03-19T18:39:12.984Z,11.68
2019-03-19T18:44:20.234Z,8.97
2019-03-19T18:49:27.377Z,9.45
2019-03-19T18:54:34.621Z,8.71
2019-03-19T18:59:42.567Z,9.27
2019-03-19T19:04:49.785Z,10.84
2019-03-19T19:09:57.011Z,9.41
2019-03-19T19:15:04.187Z,8.89
2019-03-19T19:20:11.605Z,9.39
2019-03-19T19:25:21.382Z,7.08
2019-03-19T19:30:29.033Z,7.00
2019-03-19T19:35:36.228Z,8.59
2019-03-19T20:02:16.137Z,10.71
2019-03-19T20:07:23.316Z,7.97
2019-03-19T20:12:30.532Z,6.81
2019-03-19T20:17:37.667Z,7.39
2019-03-19T20:22:44.985Z,7.26
2019-03-19T20:27:54.344Z,9.39
2019-03-19T20:33:01.512Z,7.88
2019-03-19T20:38:11.480Z,7.67
2019-03-19T20:43:11.177Z,7.90
2019-03-19T20:48:21.142Z,7.85
2019-03-19T20:53:28.270Z,8.57
2019-03-19T20:58:43.540Z,7.77
2019-03-19T21:03:42.200Z,8.84
2019-03-19T21:08:49.363Z,7.19
2019-03-19T21:13:56.491Z,7.83
2019-03-19T21:19:04.690Z,7.89
2019-03-19T21:24:11.895Z,7.72
2019-03-19T21:29:19.059Z,8.05
2019-03-19T21:34:26.225Z,7.59
2019-03-19T21:39:33.870Z,7.81
2019-03-19T21:44:41.273Z,7.82
2019-03-19T21:49:51.227Z,9.30
2019-03-19T21:54:58.621Z,8.22
2019-03-19T22:00:05.743Z,7.87
2019-03-19T22:05:12.954Z,7.45
2019-03-19T22:10:20.103Z,8.68
2019-03-19T22:15:27.246Z,7.06
2019-03-19T22:20:34.349Z,7.58
2019-03-19T22:25:41.806Z,7.35
2019-03-19T22:30:48.926Z,9.18
2019-03-19T22:35:56.034Z,8.12
2019-03-19T22:41:03.189Z,8.26
2019-03-19T22:46:21.336Z,9.29
2019-03-19T22:51:16.971Z,9.36
2019-03-19T22:56:24.147Z,9.37
2019-03-19T23:01:31.272Z,9.63
2019-03-19T23:06:38.431Z,10.33
2019-03-19T23:11:45.800Z,9.74
2019-03-19T23:16:52.919Z,11.22
2019-03-19T23:22:00.043Z,9.54
2019-03-19T23:27:07.203Z,11.00
2019-03-19T23:32:14.385Z,10.66
2019-03-19T23:37:21.546Z,10.15
2019-03-19T23:42:28.802Z,10.18
2019-03-19T23:47:35.988Z,10.14
2019-03-19T23:52:43.153Z,9.35
2019-03-19T23:57:50.246Z,9.98
